Time;durP1;ratioP1;P1;durP2;ratioP2;P2;SDS_P1;SDS_P2;PMS_P1;PMS_P2;Temp;Humidity;BMP_temperature;BMP_pressure;BME280_temperature;BME280_humidity;BME280_pressure;Samples;Min_cycle;Max_cycle;Signal;HPM_P1;HPM_P2
2022/03/11 00:00:50;;;;;;;;;;;6.40;72.20;;;;;;5054662;28;19927;-80
2022/03/11 00:03:16;;;;;;;;;;;6.30;72.00;;;;;;5071773;28;20358;-80
2022/03/11 00:05:42;;;;;;;;;;;6.30;73.00;;;;;;5071379;28;19965;-80
2022/03/11 00:08:07;;;;;;;;;;;6.20;73.50;;;;;;5054708;28;19920;-81
2022/03/11 00:10:33;;;;;;;;;;;6.20;73.70;;;;;;5075699;28;19966;-81
2022/03/11 00:12:59;;;;;;;;;;;6.20;73.20;;;;;;5075429;28;19924;-80
2022/03/11 00:15:27;;;;;;;;;;;6.10;73.90;;;;;;5075744;28;20305;-80
2022/03/11 00:17:53;;;;;;;;;;;6.10;74.10;;;;;;5075765;28;19920;-80
2022/03/11 00:20:21;;;;;;;;;;;6.00;74.30;;;;;;5074834;28;19973;-80
2022/03/11 00:22:47;;;;;;;;;;;6.00;74.60;;;;;;5075248;28;19926;-80
2022/03/11 00:25:13;;;;;;;;;;;5.90;74.90;;;;;;5059018;28;20286;-81
2022/03/11 00:27:38;;;;;;;;;;;5.90;75.10;;;;;;5075355;28;19927;-80
2022/03/11 00:30:04;;;;;;;;;;;5.90;75.40;;;;;;5075170;28;19927;-81
2022/03/11 00:32:30;;;;;;;;;;;5.80;76.50;;;;;;5074688;28;19930;-80
2022/03/11 00:34:55;;;;;;;;;;;5.80;75.90;;;;;;5074915;28;19935;-81
2022/03/11 00:37:21;;;;;;;;;;;5.80;76.50;;;;;;5075053;28;19979;-81
2022/03/11 00:39:47;;;;;;;;;;;5.70;76.80;;;;;;5074901;28;19926;-80
2022/03/11 00:42:12;;;;;;;;;;;5.70;76.70;;;;;;5074923;28;19973;-80
2022/03/11 00:44:39;;;;;;;;;;;5.70;76.90;;;;;;5074406;28;19926;-80
2022/03/11 00:47:05;;;;;;;;;;;5.60;77.70;;;;;;5074663;28;19967;-80
2022/03/11 00:49:31;;;;;;;;;;;5.60;77.90;;;;;;5075038;28;19967;-81
2022/03/11 00:51:56;;;;;;;;;;;5.60;77.50;;;;;;5074539;28;19928;-80
2022/03/11 00:54:22;;;;;;;;;;;5.60;77.90;;;;;;5075023;28;19920;-80
2022/03/11 00:56:47;;;;;;;;;;;5.50;77.90;;;;;;5074525;28;20499;-80
2022/03/11 00:59:13;;;;;;;;;;;5.50;78.40;;;;;;5074599;28;19970;-80
2022/03/11 01:01:38;;;;;;;;;;;5.50;79.60;;;;;;5058369;28;19924;-80
2022/03/11 01:04:04;;;;;;;;;;;5.40;79.10;;;;;;5074377;28;19924;-80
2022/03/11 01:06:29;;;;;;;;;;;5.40;79.80;;;;;;5074536;28;20297;-80
2022/03/11 01:08:55;;;;;;;;;;;5.40;80.50;;;;;;5074506;28;19923;-81
2022/03/11 01:11:20;;;;;;;;;;;5.40;80.00;;;;;;5074274;28;19966;-80
2022/03/11 01:13:46;;;;;;;;;;;5.30;80.50;;;;;;5057727;28;19974;-81
2022/03/11 01:16:11;;;;;;;;;;;5.30;80.60;;;;;;5074508;28;20344;-81
2022/03/11 01:18:37;;;;;;;;;;;5.30;80.90;;;;;;5074463;28;20247;-80
2022/03/11 01:21:03;;;;;;;;;;;5.30;81.00;;;;;;5072769;28;19924;-80
2022/03/11 01:23:29;;;;;;;;;;;5.20;82.50;;;;;;5074019;28;19920;-81
2022/03/11 01:25:54;;;;;;;;;;;5.20;81.60;;;;;;5074144;28;20305;-80
2022/03/11 01:28:20;;;;;;;;;;;5.20;82.30;;;;;;5073773;28;19927;-80
2022/03/11 01:30:45;;;;;;;;;;;5.20;82.80;;;;;;5056822;28;19923;-80
2022/03/11 01:33:11;;;;;;;;;;;5.10;83.70;;;;;;5074157;28;20270;-80
2022/03/11 01:35:36;;;;;;;;;;;5.10;83.60;;;;;;5073988;28;19994;-80
2022/03/11 01:38:02;;;;;;;;;;;5.10;83.10;;;;;;5074118;28;20350;-80
2022/03/11 01:40:27;;;;;;;;;;;5.10;82.90;;;;;;5073569;28;20030;-80
2022/03/11 01:42:53;;;;;;;;;;;5.10;83.30;;;;;;5073801;28;19920;-81
2022/03/11 01:45:18;;;;;;;;;;;5.10;83.10;;;;;;5073964;28;19928;-80
2022/03/11 01:47:44;;;;;;;;;;;5.00;83.20;;;;;;5073700;28;20374;-81
2022/03/11 01:50:09;;;;;;;;;;;5.00;83.70;;;;;;5057172;28;19920;-80
2022/03/11 01:52:36;;;;;;;;;;;5.00;83.90;;;;;;5073585;28;20396;-80
2022/03/11 01:55:02;;;;;;;;;;;5.00;83.90;;;;;;5073222;28;19984;-80
2022/03/11 01:57:27;;;;;;;;;;;4.90;84.20;;;;;;5073370;28;19920;-81
2022/03/11 01:59:53;;;;;;;;;;;4.90;84.30;;;;;;5074048;28;19931;-81
2022/03/11 02:02:18;;;;;;;;;;;4.90;84.20;;;;;;5056386;28;20731;-80
2022/03/11 02:04:44;;;;;;;;;;;4.90;84.80;;;;;;5073688;28;19942;-80
2022/03/11 02:07:10;;;;;;;;;;;4.80;84.80;;;;;;5056655;28;20289;-80
2022/03/11 02:09:36;;;;;;;;;;;4.80;85.30;;;;;;5073214;28;19920;-80
2022/03/11 02:12:02;;;;;;;;;;;4.70;84.80;;;;;;5056402;28;19923;-80
2022/03/11 02:14:28;;;;;;;;;;;4.70;85.40;;;;;;5073437;28;20314;-80
2022/03/11 02:16:53;;;;;;;;;;;4.70;85.40;;;;;;5073210;28;19920;-81
2022/03/11 02:19:19;;;;;;;;;;;4.70;85.70;;;;;;5073328;28;19977;-81
2022/03/11 02:21:45;;;;;;;;;;;4.60;86.00;;;;;;5073512;28;19927;-80
2022/03/11 02:24:11;;;;;;;;;;;4.60;86.00;;;;;;5058416;28;20481;-81
2022/03/11 02:26:37;;;;;;;;;;;4.60;85.70;;;;;;5119946;27;19970;-80
2022/03/11 02:29:03;;;;;;;;;;;4.50;86.20;;;;;;5076009;28;19927;-81
2022/03/11 02:31:30;;;;;;;;;;;4.50;86.70;;;;;;5075839;28;19920;-81
2022/03/11 02:33:56;;;;;;;;;;;4.50;86.40;;;;;;5076393;28;20328;-81
2022/03/11 02:36:22;;;;;;;;;;;4.50;85.80;;;;;;5092608;28;19965;-81
2022/03/11 02:38:48;;;;;;;;;;;4.40;86.50;;;;;;5092874;28;19919;-80
2022/03/11 02:41:13;;;;;;;;;;;4.50;87.10;;;;;;5093252;28;19919;-80
2022/03/11 02:43:41;;;;;;;;;;;4.40;86.70;;;;;;5092898;28;20318;-81
2022/03/11 02:46:07;;;;;;;;;;;4.40;87.20;;;;;;5075504;28;19919;-81
2022/03/11 02:48:33;;;;;;;;;;;4.40;87.10;;;;;;5093257;28;19920;-80
2022/03/11 02:50:58;;;;;;;;;;;4.30;87.90;;;;;;5076213;28;19930;-80
2022/03/11 02:53:24;;;;;;;;;;;4.30;88.50;;;;;;5092523;28;19973;-81
2022/03/11 02:55:49;;;;;;;;;;;4.30;87.80;;;;;;5076003;28;19985;-80
2022/03/11 02:58:15;;;;;;;;;;;4.20;87.50;;;;;;5092471;28;19927;-81
2022/03/11 03:00:40;;;;;;;;;;;4.20;88.10;;;;;;5092484;28;20294;-81
2022/03/11 03:03:06;;;;;;;;;;;4.20;88.00;;;;;;5092729;28;19927;-80
2022/03/11 03:05:32;;;;;;;;;;;4.20;87.80;;;;;;5092654;28;19959;-81
2022/03/11 03:07:57;;;;;;;;;;;4.20;88.10;;;;;;5092284;28;19923;-81
2022/03/11 03:10:23;;;;;;;;;;;4.10;88.60;;;;;;5092414;28;20539;-81
2022/03/11 03:12:48;;;;;;;;;;;4.10;89.10;;;;;;5092496;28;19960;-80
2022/03/11 03:15:14;;;;;;;;;;;4.10;89.80;;;;;;5091588;28;19967;-81
2022/03/11 03:17:39;;;;;;;;;;;4.10;89.00;;;;;;5091324;28;19976;-81
2022/03/11 03:20:07;;;;;;;;;;;4.00;89.80;;;;;;5091290;28;19926;-81
2022/03/11 03:22:33;;;;;;;;;;;4.00;90.10;;;;;;5074310;28;19920;-81
2022/03/11 03:24:59;;;;;;;;;;;3.90;90.00;;;;;;5074206;28;20449;-81
2022/03/11 03:27:24;;;;;;;;;;;3.90;90.00;;;;;;5090956;28;19920;-80
2022/03/11 03:29:50;;;;;;;;;;;3.90;90.00;;;;;;5074089;28;19927;-81
2022/03/11 03:32:15;;;;;;;;;;;3.90;90.10;;;;;;5091936;28;19924;-81
2022/03/11 03:34:41;;;;;;;;;;;3.90;90.10;;;;;;5091282;28;20370;-80
2022/03/11 03:37:08;;;;;;;;;;;3.80;90.30;;;;;;5092113;28;20004;-80
2022/03/11 03:39:34;;;;;;;;;;;3.80;90.50;;;;;;5092162;28;19927;-80
2022/03/11 03:42:00;;;;;;;;;;;3.70;90.50;;;;;;5075332;28;19924;-80
2022/03/11 03:44:25;;;;;;;;;;;3.70;90.40;;;;;;5091046;28;19920;-80
2022/03/11 03:46:51;;;;;;;;;;;3.70;90.20;;;;;;5091877;28;19926;-80
2022/03/11 03:49:16;;;;;;;;;;;3.70;90.70;;;;;;5091367;28;19995;-80
2022/03/11 03:51:42;;;;;;;;;;;3.60;90.50;;;;;;5091046;28;19919;-80
2022/03/11 03:54:11;;;;;;;;;;;3.60;90.60;;;;;;5091205;28;20336;-80
2022/03/11 03:56:40;;;;;;;;;;;3.50;90.80;;;;;;5073814;28;19920;-80
2022/03/11 03:59:07;;;;;;;;;;;3.50;90.80;;;;;;5091112;28;20369;-80
2022/03/11 04:01:36;;;;;;;;;;;3.50;90.70;;;;;;5090729;28;19926;-81
2022/03/11 04:04:03;;;;;;;;;;;3.50;90.90;;;;;;5090386;28;19919;-80
2022/03/11 04:06:29;;;;;;;;;;;3.50;91.00;;;;;;5074082;28;19924;-80
2022/03/11 04:08:57;;;;;;;;;;;3.40;90.90;;;;;;5090924;28;19995;-80
2022/03/11 04:11:27;;;;;;;;;;;3.40;91.00;;;;;;5090530;28;19927;-81
2022/03/11 04:13:53;;;;;;;;;;;3.30;91.10;;;;;;5090744;28;20356;-80
2022/03/11 04:16:18;;;;;;;;;;;3.30;91.00;;;;;;5090894;28;19920;-80
2022/03/11 04:18:44;;;;;;;;;;;3.30;91.00;;;;;;5073603;28;19920;-80
2022/03/11 04:21:10;;;;;;;;;;;3.30;91.10;;;;;;5090247;28;20018;-80
2022/03/11 04:23:35;;;;;;;;;;;3.30;91.00;;;;;;5090755;28;19920;-80
2022/03/11 04:26:01;;;;;;;;;;;3.30;90.90;;;;;;5090466;28;19930;-81
2022/03/11 04:28:27;;;;;;;;;;;3.20;91.10;;;;;;5073663;28;19920;-80
2022/03/11 04:30:52;;;;;;;;;;;3.20;91.00;;;;;;5089884;28;19928;-81
2022/03/11 04:33:18;;;;;;;;;;;3.20;90.90;;;;;;5090668;28;19920;-81
2022/03/11 04:35:43;;;;;;;;;;;3.20;91.10;;;;;;5090408;28;20282;-80
2022/03/11 04:38:09;;;;;;;;;;;3.20;91.10;;;;;;5090204;28;20768;-80
2022/03/11 04:40:35;;;;;;;;;;;3.20;91.20;;;;;;5090730;28;19926;-80
2022/03/11 04:43:02;;;;;;;;;;;3.10;91.10;;;;;;5090782;28;20015;-80
2022/03/11 04:45:28;;;;;;;;;;;3.10;91.20;;;;;;5090546;28;20038;-80
2022/03/11 04:47:53;;;;;;;;;;;3.10;91.20;;;;;;5090345;28;20000;-80
2022/03/11 04:50:19;;;;;;;;;;;3.10;91.30;;;;;;5090516;28;19957;-80
2022/03/11 04:52:45;;;;;;;;;;;3.10;91.20;;;;;;5090407;28;19927;-80
2022/03/11 04:55:10;;;;;;;;;;;3.00;91.30;;;;;;5091599;28;19923;-81
2022/03/11 04:57:36;;;;;;;;;;;3.00;91.30;;;;;;5095043;28;19926;-81
2022/03/11 05:00:03;;;;;;;;;;;3.00;91.40;;;;;;5078116;28;19919;-81
2022/03/11 05:02:29;;;;;;;;;;;3.00;91.50;;;;;;5094867;28;19932;-81
2022/03/11 05:04:55;;;;;;;;;;;2.90;91.70;;;;;;5094593;28;20025;-80
2022/03/11 05:07:21;;;;;;;;;;;2.90;91.70;;;;;;5094730;28;20006;-81
2022/03/11 05:09:47;;;;;;;;;;;2.90;91.80;;;;;;5077784;28;20436;-80
2022/03/11 05:12:13;;;;;;;;;;;2.80;91.90;;;;;;5094668;28;20011;-80
2022/03/11 05:14:38;;;;;;;;;;;2.80;91.90;;;;;;5094340;28;20002;-81
2022/03/11 05:17:04;;;;;;;;;;;2.80;91.90;;;;;;5094848;28;19959;-81
2022/03/11 05:19:30;;;;;;;;;;;2.80;92.00;;;;;;5095085;28;20401;-81
2022/03/11 05:21:55;;;;;;;;;;;2.70;92.00;;;;;;5094341;28;19924;-79
2022/03/11 05:24:21;;;;;;;;;;;2.70;92.20;;;;;;5094561;28;19920;-81
2022/03/11 05:26:48;;;;;;;;;;;2.60;92.20;;;;;;5077537;28;20600;-80
2022/03/11 05:29:14;;;;;;;;;;;2.60;92.30;;;;;;5094017;28;19927;-81
2022/03/11 05:31:39;;;;;;;;;;;2.60;92.20;;;;;;5094191;28;19919;-80
2022/03/11 05:34:05;;;;;;;;;;;2.60;92.20;;;;;;5094319;28;19924;-80
2022/03/11 05:36:30;;;;;;;;;;;2.60;92.30;;;;;;5094254;28;20022;-81
2022/03/11 05:38:57;;;;;;;;;;;2.60;92.50;;;;;;5093730;28;19980;-80
2022/03/11 05:41:22;;;;;;;;;;;2.50;92.50;;;;;;5094559;28;19920;-81
2022/03/11 05:43:48;;;;;;;;;;;2.50;92.20;;;;;;5093807;28;19941;-80
2022/03/11 05:46:13;;;;;;;;;;;2.50;92.40;;;;;;5093996;28;19920;-81
2022/03/11 05:48:39;;;;;;;;;;;2.50;92.40;;;;;;5094238;28;19924;-81
2022/03/11 05:51:05;;;;;;;;;;;2.40;92.40;;;;;;5093598;28;20014;-80
2022/03/11 05:53:30;;;;;;;;;;;2.40;92.40;;;;;;5094085;28;19924;-81
2022/03/11 05:55:56;;;;;;;;;;;2.40;92.80;;;;;;5093790;28;19924;-80
2022/03/11 05:58:21;;;;;;;;;;;2.40;92.60;;;;;;5093731;28;19927;-81
2022/03/11 06:00:47;;;;;;;;;;;2.40;92.50;;;;;;5076875;28;20010;-80
2022/03/11 06:03:12;;;;;;;;;;;2.40;92.40;;;;;;5094293;28;19968;-80
2022/03/11 06:05:38;;;;;;;;;;;2.40;92.50;;;;;;5075872;28;19935;-81
2022/03/11 06:08:03;;;;;;;;;;;2.30;92.30;;;;;;5092912;28;19988;-81
2022/03/11 06:10:29;;;;;;;;;;;2.30;92.30;;;;;;5094090;28;19989;-81
2022/03/11 06:12:54;;;;;;;;;;;2.30;92.20;;;;;;5093510;28;19920;-81
2022/03/11 06:15:20;;;;;;;;;;;2.30;92.50;;;;;;5093381;28;20334;-80
2022/03/11 06:17:45;;;;;;;;;;;2.30;92.40;;;;;;5076098;28;19972;-80
2022/03/11 06:20:12;;;;;;;;;;;2.40;92.10;;;;;;5093517;28;20014;-81
2022/03/11 06:22:45;;;;;;;;;;;2.40;92.10;;;;;;5093293;28;20002;-81
2022/03/11 06:25:10;;;;;;;;;;;2.40;92.10;;;;;;5076004;28;19924;-82
2022/03/11 06:27:36;;;;;;;;;;;2.40;92.00;;;;;;5093123;28;19919;-81
2022/03/11 06:30:02;;;;;;;;;;;2.40;92.00;;;;;;5092714;28;19919;-79
2022/03/11 06:32:27;;;;;;;;;;;2.40;92.10;;;;;;5093336;28;19963;-81
2022/03/11 06:34:54;;;;;;;;;;;2.40;92.00;;;;;;5092531;28;19924;-81
2022/03/11 06:37:20;;;;;;;;;;;2.40;91.90;;;;;;5092760;28;19972;-81
2022/03/11 06:39:45;;;;;;;;;;;2.50;91.90;;;;;;5093196;28;19923;-81
2022/03/11 06:42:11;;;;;;;;;;;2.50;91.80;;;;;;5093130;28;19919;-81
2022/03/11 06:44:36;;;;;;;;;;;2.50;91.90;;;;;;5075476;28;19954;-80
2022/03/11 06:47:02;;;;;;;;;;;2.50;91.80;;;;;;5096022;27;19930;-79
2022/03/11 06:49:27;;;;;;;;;;;2.50;91.80;;;;;;5112640;27;19926;-79
2022/03/11 06:51:53;;;;;;;;;;;2.50;91.80;;;;;;5111133;27;19984;-81
2022/03/11 06:54:18;;;;;;;;;;;2.60;91.80;;;;;;5112330;27;20415;-81
2022/03/11 06:56:44;;;;;;;;;;;2.50;91.70;;;;;;5112788;27;20335;-80
2022/03/11 06:59:09;;;;;;;;;;;2.60;91.50;;;;;;5113211;27;19975;-81
2022/03/11 07:01:35;;;;;;;;;;;2.70;91.40;;;;;;5112471;27;20361;-81
2022/03/11 07:04:02;;;;;;;;;;;2.70;91.30;;;;;;5112830;27;19931;-81
2022/03/11 07:06:28;;;;;;;;;;;2.70;91.20;;;;;;5112749;27;19923;-80
2022/03/11 07:08:53;;;;;;;;;;;2.80;91.30;;;;;;5113154;27;20005;-81
2022/03/11 07:11:19;;;;;;;;;;;2.80;91.30;;;;;;5112617;27;20388;-81
2022/03/11 07:13:44;;;;;;;;;;;2.80;91.20;;;;;;5112993;27;19972;-81
2022/03/11 07:16:10;;;;;;;;;;;2.80;91.10;;;;;;5112638;27;19923;-81
2022/03/11 07:18:36;;;;;;;;;;;2.90;90.90;;;;;;5112445;27;19945;-81
2022/03/11 07:21:01;;;;;;;;;;;2.90;91.00;;;;;;5112453;27;19923;-81
2022/03/11 07:23:27;;;;;;;;;;;2.90;90.80;;;;;;5112348;27;20393;-81
2022/03/11 07:25:53;;;;;;;;;;;3.00;90.90;;;;;;5112364;27;19967;-81
2022/03/11 07:28:20;;;;;;;;;;;3.00;90.80;;;;;;5095605;27;20301;-81
2022/03/11 07:30:45;;;;;;;;;;;3.10;90.70;;;;;;5112043;27;19919;-81
2022/03/11 07:33:12;;;;;;;;;;;3.10;90.60;;;;;;5109758;27;19926;-81
2022/03/11 07:35:37;;;;;;;;;;;3.10;90.60;;;;;;5092754;28;19924;-81
2022/03/11 07:38:03;;;;;;;;;;;3.10;90.70;;;;;;5092087;28;19920;-80
2022/03/11 07:40:29;;;;;;;;;;;3.20;90.40;;;;;;5091788;28;20389;-81
2022/03/11 07:42:54;;;;;;;;;;;3.20;90.40;;;;;;5091829;28;20339;-81
2022/03/11 07:45:21;;;;;;;;;;;3.30;90.20;;;;;;5091725;28;19920;-81
2022/03/11 07:47:46;;;;;;;;;;;3.40;90.20;;;;;;5091544;28;19920;-81
2022/03/11 07:50:12;;;;;;;;;;;3.40;90.20;;;;;;5092295;28;19972;-81
2022/03/11 07:52:38;;;;;;;;;;;3.40;90.10;;;;;;5091972;28;19920;-81
2022/03/11 07:55:07;;;;;;;;;;;3.50;90.00;;;;;;5091744;28;19919;-81
2022/03/11 07:57:35;;;;;;;;;;;3.50;89.90;;;;;;5091718;28;19919;-81
2022/03/11 08:00:01;;;;;;;;;;;3.60;89.50;;;;;;5091874;28;19930;-81
2022/03/11 08:02:27;;;;;;;;;;;3.60;89.20;;;;;;5091852;28;19920;-81
2022/03/11 08:04:53;;;;;;;;;;;3.70;89.20;;;;;;5091564;28;20339;-82
2022/03/11 08:07:18;;;;;;;;;;;3.80;88.60;;;;;;5091647;28;19920;-81
2022/03/11 08:09:44;;;;;;;;;;;3.80;88.80;;;;;;5091875;28;19920;-81
2022/03/11 08:12:13;;;;;;;;;;;3.90;88.40;;;;;;5091973;28;20078;-81
2022/03/11 08:14:39;;;;;;;;;;;3.90;88.20;;;;;;5091488;28;19930;-81
2022/03/11 08:17:05;;;;;;;;;;;4.00;88.10;;;;;;5091522;28;19926;-81
2022/03/11 08:19:31;;;;;;;;;;;4.10;86.90;;;;;;5091717;28;19924;-81
2022/03/11 08:21:56;;;;;;;;;;;4.10;87.70;;;;;;5091297;28;19920;-81
2022/03/11 08:24:22;;;;;;;;;;;4.20;86.30;;;;;;5091526;28;19923;-81
2022/03/11 08:26:48;;;;;;;;;;;4.30;86.30;;;;;;5074218;28;19976;-81
2022/03/11 08:29:14;;;;;;;;;;;4.30;86.00;;;;;;5075285;28;20028;-81
2022/03/11 08:31:39;;;;;;;;;;;4.40;84.80;;;;;;5072422;28;20027;-81
2022/03/11 08:34:05;;;;;;;;;;;4.50;85.20;;;;;;5071305;28;20019;-81
2022/03/11 08:36:31;;;;;;;;;;;4.50;84.40;;;;;;5072321;28;19996;-81
2022/03/11 08:38:56;;;;;;;;;;;4.60;84.30;;;;;;5071548;28;19920;-82
2022/03/11 08:41:25;;;;;;;;;;;4.60;83.70;;;;;;5055190;28;19924;-82
2022/03/11 08:43:50;;;;;;;;;;;4.60;83.20;;;;;;5071764;28;19966;-81
2022/03/11 08:46:16;;;;;;;;;;;4.70;82.90;;;;;;5071339;28;19920;-82
2022/03/11 08:48:43;;;;;;;;;;;4.80;83.20;;;;;;5071428;28;19992;-81
2022/03/11 08:51:09;;;;;;;;;;;4.80;82.60;;;;;;5054755;28;19945;-81
2022/03/11 08:53:34;;;;;;;;;;;4.90;83.20;;;;;;5071715;28;19920;-82
2022/03/11 08:56:00;;;;;;;;;;;4.90;83.10;;;;;;5071098;28;19924;-82
2022/03/11 08:58:25;;;;;;;;;;;5.00;82.00;;;;;;5054622;28;20505;-81
2022/03/11 09:00:51;;;;;;;;;;;5.00;82.70;;;;;;5071624;28;20339;-81
2022/03/11 09:03:16;;;;;;;;;;;5.10;82.50;;;;;;5071560;28;19920;-81
2022/03/11 09:05:42;;;;;;;;;;;5.20;82.50;;;;;;5053965;28;19925;-82
2022/03/11 09:08:07;;;;;;;;;;;5.20;82.30;;;;;;5070953;28;19924;-81
2022/03/11 09:10:34;;;;;;;;;;;5.30;81.80;;;;;;5071309;28;19982;-82
2022/03/11 09:12:59;;;;;;;;;;;5.40;81.70;;;;;;5070723;28;19931;-82
2022/03/11 09:15:25;;;;;;;;;;;5.50;81.70;;;;;;5071574;28;19920;-81
2022/03/11 09:17:51;;;;;;;;;;;5.50;81.40;;;;;;5070928;28;20007;-82
2022/03/11 09:20:16;;;;;;;;;;;5.60;80.90;;;;;;5071228;28;19928;-81
2022/03/11 09:22:42;;;;;;;;;;;5.70;80.50;;;;;;5070783;28;19931;-82
2022/03/11 09:25:08;;;;;;;;;;;6.10;81.70;;;;;;5070776;28;19927;-82
2022/03/11 09:27:34;;;;;;;;;;;7.00;81.80;;;;;;5070516;28;19973;-80
2022/03/11 09:30:00;;;;;;;;;;;8.10;78.50;;;;;;5070521;28;19930;-80
2022/03/11 09:32:25;;;;;;;;;;;9.10;73.70;;;;;;5054251;28;20306;-80
2022/03/11 09:34:51;;;;;;;;;;;9.80;71.60;;;;;;5070470;28;20011;-80
2022/03/11 09:37:17;;;;;;;;;;;10.30;67.10;;;;;;5071202;28;19920;-80
2022/03/11 09:39:43;;;;;;;;;;;10.70;66.70;;;;;;5069972;28;19920;-80
2022/03/11 09:42:09;;;;;;;;;;;11.00;64.60;;;;;;5069463;28;19920;-80
2022/03/11 09:44:35;;;;;;;;;;;11.30;63.00;;;;;;5053905;28;19920;-80
2022/03/11 09:47:01;;;;;;;;;;;11.60;62.70;;;;;;5070651;28;19931;-80
2022/03/11 09:49:26;;;;;;;;;;;11.90;61.30;;;;;;5070359;28;19924;-80
2022/03/11 09:51:52;;;;;;;;;;;12.10;57.80;;;;;;5070059;28;19924;-80
2022/03/11 09:54:18;;;;;;;;;;;12.20;57.50;;;;;;5070478;28;20275;-80
2022/03/11 09:56:44;;;;;;;;;;;12.10;56.10;;;;;;5070210;28;19924;-80
2022/03/11 09:59:11;;;;;;;;;;;12.20;56.00;;;;;;5070133;28;19924;-80
2022/03/11 10:01:36;;;;;;;;;;;12.50;55.00;;;;;;5070264;28;19920;-80
2022/03/11 10:04:06;;;;;;;;;;;12.60;53.50;;;;;;5070679;28;19978;-80
2022/03/11 10:06:45;;;;;;;;;;;12.60;53.50;;;;;;5069955;28;19982;-80
2022/03/11 10:09:19;;;;;;;;;;;12.70;51.70;;;;;;5069856;28;19964;-80
2022/03/11 10:11:46;;;;;;;;;;;12.60;52.50;;;;;;5053315;28;19927;-80
2022/03/11 10:14:12;;;;;;;;;;;12.80;53.10;;;;;;5069565;28;19921;-80
2022/03/11 10:16:38;;;;;;;;;;;13.20;51.20;;;;;;5070388;28;20017;-80
2022/03/11 10:19:07;;;;;;;;;;;13.40;51.70;;;;;;5069773;28;19924;-80
2022/03/11 10:21:37;;;;;;;;;;;13.50;50.30;;;;;;5053175;28;19924;-80
2022/03/11 10:24:05;;;;;;;;;;;13.70;48.90;;;;;;5069730;28;19924;-80
2022/03/11 10:26:31;;;;;;;;;;;13.80;49.00;;;;;;5069825;28;19924;-80
2022/03/11 10:29:00;;;;;;;;;;;13.90;48.60;;;;;;5069700;28;19978;-80
2022/03/11 10:31:32;;;;;;;;;;;13.80;48.40;;;;;;5090575;28;19927;-81
2022/03/11 10:34:11;;;;;;;;;;;14.00;48.90;;;;;;5093037;28;19946;-81
2022/03/11 10:36:37;;;;;;;;;;;14.30;49.50;;;;;;5093035;28;19979;-80
2022/03/11 10:39:21;;;;;;;;;;;14.60;48.80;;;;;;5093032;28;19924;-81
2022/03/11 10:41:49;;;;;;;;;;;14.60;49.10;;;;;;5092870;28;19974;-81
2022/03/11 10:44:22;;;;;;;;;;;14.40;46.30;;;;;;5093110;28;20320;-81
2022/03/11 10:46:48;;;;;;;;;;;14.20;46.80;;;;;;5075877;28;19926;-80
2022/03/11 10:49:31;;;;;;;;;;;14.20;46.30;;;;;;5093014;28;19920;-81
2022/03/11 10:51:58;;;;;;;;;;;14.20;46.60;;;;;;5092841;28;20377;-80
2022/03/11 10:54:24;;;;;;;;;;;14.30;47.30;;;;;;5092448;28;19972;-80
2022/03/11 10:56:50;;;;;;;;;;;14.40;46.40;;;;;;5075978;28;19919;-81
2022/03/11 10:59:21;;;;;;;;;;;14.70;46.50;;;;;;5092758;28;19919;-81
2022/03/11 11:01:47;;;;;;;;;;;14.80;45.10;;;;;;5092995;28;19926;-80
2022/03/11 11:04:14;;;;;;;;;;;14.80;45.60;;;;;;5092597;28;19920;-81
2022/03/11 11:06:40;;;;;;;;;;;14.90;45.40;;;;;;5092061;28;19973;-81
2022/03/11 11:09:06;;;;;;;;;;;15.20;46.20;;;;;;5075881;28;19927;-81
2022/03/11 11:11:32;;;;;;;;;;;15.40;43.60;;;;;;5091739;28;19974;-81
2022/03/11 11:14:05;;;;;;;;;;;15.30;44.60;;;;;;5092079;28;19963;-81
2022/03/11 11:16:38;;;;;;;;;;;15.40;44.20;;;;;;5075154;28;19986;-81
2022/03/11 11:19:06;;;;;;;;;;;15.40;43.60;;;;;;5075346;28;19920;-81
2022/03/11 11:21:32;;;;;;;;;;;15.40;43.00;;;;;;5092320;28;19924;-81
2022/03/11 11:23:57;;;;;;;;;;;15.50;44.00;;;;;;5091799;28;19930;-81
2022/03/11 11:26:24;;;;;;;;;;;15.60;43.40;;;;;;5092459;28;19970;-81
2022/03/11 11:28:55;;;;;;;;;;;15.70;42.50;;;;;;5091925;28;19920;-81
2022/03/11 11:31:22;;;;;;;;;;;15.80;43.10;;;;;;5092144;28;19993;-81
2022/03/11 11:33:48;;;;;;;;;;;16.00;43.10;;;;;;5092531;28;20331;-80
2022/03/11 11:36:14;;;;;;;;;;;16.10;42.40;;;;;;5075022;28;19923;-81
2022/03/11 11:38:42;;;;;;;;;;;16.10;42.40;;;;;;5092199;28;19958;-80
2022/03/11 11:41:25;;;;;;;;;;;16.20;42.10;;;;;;5075350;28;19919;-80
2022/03/11 11:43:59;;;;;;;;;;;16.10;39.90;;;;;;5075108;28;19919;-81
2022/03/11 11:46:25;;;;;;;;;;;16.00;41.00;;;;;;5091731;28;19920;-81
2022/03/11 11:48:51;;;;;;;;;;;16.10;42.40;;;;;;5091658;28;19926;-81
2022/03/11 11:51:21;;;;;;;;;;;16.20;42.50;;;;;;5075106;28;19967;-80
2022/03/11 11:53:51;;;;;;;;;;;16.50;43.10;;;;;;5091713;28;19924;-80
2022/03/11 11:56:36;;;;;;;;;;;16.80;41.90;;;;;;5074761;28;19920;-81
2022/03/11 11:59:02;;;;;;;;;;;16.90;40.40;;;;;;5091845;28;20274;-81
2022/03/11 12:01:43;;;;;;;;;;;17.00;42.00;;;;;;5091277;28;19919;-81
2022/03/11 12:04:29;;;;;;;;;;;17.00;41.20;;;;;;5090728;28;19920;-81
2022/03/11 12:06:58;;;;;;;;;;;17.00;40.20;;;;;;5077034;28;19926;-81
2022/03/11 12:10:01;;;;;;;;;;;17.10;41.50;;;;;;5091233;28;19927;-81
2022/03/11 12:12:30;;;;;;;;;;;17.30;39.40;;;;;;5090616;28;19964;-81
2022/03/11 12:15:05;;;;;;;;;;;17.30;40.10;;;;;;5074763;28;19992;-81
2022/03/11 12:17:38;;;;;;;;;;;17.40;40.40;;;;;;5091379;28;19923;-81
2022/03/11 12:20:22;;;;;;;;;;;17.70;40.30;;;;;;5090864;28;20653;-81
2022/03/11 12:22:52;;;;;;;;;;;17.70;40.00;;;;;;5091403;28;19927;-81
2022/03/11 12:25:20;;;;;;;;;;;17.90;40.30;;;;;;5091255;28;19969;-81
2022/03/11 12:28:05;;;;;;;;;;;17.90;38.20;;;;;;5091367;28;19942;-82
2022/03/11 12:30:33;;;;;;;;;;;18.00;38.40;;;;;;5091051;28;19931;-82
2022/03/11 12:32:59;;;;;;;;;;;18.00;38.20;;;;;;5091706;28;20295;-82
2022/03/11 12:35:24;;;;;;;;;;;18.20;37.50;;;;;;5091961;28;19927;-82
2022/03/11 12:37:50;;;;;;;;;;;17.90;38.00;;;;;;5074854;28;19920;-82
2022/03/11 12:40:18;;;;;;;;;;;18.10;39.90;;;;;;5090975;28;19927;-82
2022/03/11 12:42:44;;;;;;;;;;;18.20;38.40;;;;;;5091367;28;19932;-82
2022/03/11 12:45:11;;;;;;;;;;;18.10;38.00;;;;;;5091367;28;19943;-82
2022/03/11 12:47:40;;;;;;;;;;;18.40;38.60;;;;;;5091113;28;19924;-81
2022/03/11 12:50:07;;;;;;;;;;;18.90;36.40;;;;;;5090877;28;19923;-81
2022/03/11 12:52:37;;;;;;;;;;;18.90;37.00;;;;;;5091216;28;20381;-82
2022/03/11 12:55:19;;;;;;;;;;;19.00;38.30;;;;;;5074407;28;19919;-81
2022/03/11 12:57:44;;;;;;;;;;;19.20;37.10;;;;;;5091422;28;19919;-82
2022/03/11 13:00:20;;;;;;;;;;;19.60;36.90;;;;;;5090794;28;20302;-82
2022/03/11 13:02:47;;;;;;;;;;;19.80;36.10;;;;;;5074588;28;20395;-82
2022/03/11 13:05:20;;;;;;;;;;;19.70;35.10;;;;;;5074206;28;20017;-81
2022/03/11 13:07:45;;;;;;;;;;;19.30;35.10;;;;;;5091403;28;20036;-81
2022/03/11 13:10:12;;;;;;;;;;;18.90;35.20;;;;;;5090763;28;19931;-81
2022/03/11 13:12:38;;;;;;;;;;;18.90;36.10;;;;;;5074370;28;19927;-82
2022/03/11 13:15:10;;;;;;;;;;;19.20;36.60;;;;;;5109398;28;19923;-82
2022/03/11 13:17:43;;;;;;;;;;;19.10;34.80;;;;;;5078353;28;19919;-81
2022/03/11 13:20:24;;;;;;;;;;;19.10;34.80;;;;;;5094125;28;20446;-81
2022/03/11 13:22:50;;;;;;;;;;;19.10;35.50;;;;;;5094912;28;19920;-81
2022/03/11 13:25:21;;;;;;;;;;;19.30;34.80;;;;;;5094700;28;19994;-81
2022/03/11 13:27:48;;;;;;;;;;;19.50;35.00;;;;;;5094368;28;19920;-81
2022/03/11 13:30:13;;;;;;;;;;;19.80;34.20;;;;;;5093754;28;19930;-81
2022/03/11 13:32:39;;;;;;;;;;;19.80;32.80;;;;;;5094226;28;19920;-81
2022/03/11 13:35:05;;;;;;;;;;;19.80;33.60;;;;;;5077677;28;19962;-81
2022/03/11 13:37:40;;;;;;;;;;;19.60;32.00;;;;;;5094613;28;20394;-81
2022/03/11 13:40:10;;;;;;;;;;;19.40;33.30;;;;;;5094024;28;19923;-81
2022/03/11 13:42:35;;;;;;;;;;;19.40;33.70;;;;;;5093888;28;19971;-81
2022/03/11 13:45:05;;;;;;;;;;;19.40;33.70;;;;;;5094482;28;20027;-81
2022/03/11 13:47:31;;;;;;;;;;;19.40;32.20;;;;;;5094120;28;20049;-81
2022/03/11 13:50:05;;;;;;;;;;;19.30;32.70;;;;;;5093522;28;19989;-81
2022/03/11 13:52:38;;;;;;;;;;;19.30;33.80;;;;;;5094026;28;19919;-81
2022/03/11 13:55:05;;;;;;;;;;;19.40;32.90;;;;;;5093569;28;19924;-81
2022/03/11 13:57:35;;;;;;;;;;;19.30;32.40;;;;;;5077369;28;19931;-80
2022/03/11 14:00:17;;;;;;;;;;;19.00;32.40;;;;;;5094003;28;20274;-80
2022/03/11 14:02:43;;;;;;;;;;;18.50;33.40;;;;;;5076950;28;20404;-80
2022/03/11 14:05:10;;;;;;;;;;;17.80;33.90;;;;;;5093699;28;19919;-80
2022/03/11 14:07:35;;;;;;;;;;;17.30;33.30;;;;;;5093941;28;20343;-80
2022/03/11 14:10:01;;;;;;;;;;;16.80;34.90;;;;;;5093718;28;19931;-80
2022/03/11 14:12:28;;;;;;;;;;;16.40;34.60;;;;;;5093678;28;20370;-80
2022/03/11 14:15:04;;;;;;;;;;;16.30;33.90;;;;;;5093647;28;19927;-81
2022/03/11 14:17:31;;;;;;;;;;;16.20;34.80;;;;;;5093464;28;19924;-80
2022/03/11 14:19:57;;;;;;;;;;;16.10;34.40;;;;;;5092367;28;19930;-80
2022/03/11 14:22:22;;;;;;;;;;;16.30;34.80;;;;;;5075914;28;19919;-80
2022/03/11 14:24:48;;;;;;;;;;;16.40;35.60;;;;;;5075193;28;19998;-80